createdAt,value
2022-11-04T00:02:16.684Z,16.58
2022-11-04T00:04:46.183Z,17.73
2022-11-04T00:07:28.030Z,18.05
2022-11-04T00:09:56.100Z,17.52
2022-11-04T00:12:26.120Z,19.30
2022-11-04T00:14:54.502Z,19.75
2022-11-04T00:17:22.916Z,19.10
2022-11-04T00:20:11.059Z,18.90
2022-11-04T00:22:57.985Z,18.75
2022-11-04T00:25:44.867Z,18.85
2022-11-04T00:28:32.117Z,19.67
2022-11-04T00:31:22.168Z,19.15
2022-11-04T00:33:50.528Z,19.45
2022-11-04T00:36:20.393Z,19.55
2022-11-04T00:38:48.598Z,20.30
2022-11-04T00:41:36.346Z,18.92
2022-11-04T00:44:06.421Z,19.05
2022-11-04T00:46:35.013Z,19.50
2022-11-04T00:49:03.201Z,19.80
2022-11-04T00:51:32.619Z,19.98
2022-11-04T00:54:00.676Z,20.05
2022-11-04T00:56:28.646Z,19.52
2022-11-04T00:58:56.969Z,19.23
2022-11-04T01:01:25.011Z,19.70
2022-11-04T01:03:54.390Z,19.55
2022-11-04T01:06:25.067Z,18.88
2022-11-04T01:08:59.111Z,18.92
2022-11-04T01:11:28.343Z,18.23
2022-11-04T01:13:56.834Z,18.02
2022-11-04T01:16:25.582Z,18.00
2022-11-04T01:18:53.644Z,19.05
2022-11-04T01:21:21.703Z,17.80
2022-11-04T01:23:49.716Z,17.17
2022-11-04T01:26:21.288Z,18.35
2022-11-04T01:28:50.209Z,17.15
2022-11-04T01:31:21.386Z,17.58
2022-11-04T01:33:49.809Z,17.15
2022-11-04T01:36:18.447Z,17.00
2022-11-04T01:38:46.890Z,18.27
2022-11-04T01:41:20.967Z,18.30
2022-11-04T01:43:51.773Z,17.33
2022-11-04T01:46:28.238Z,17.45
2022-11-04T01:48:59.304Z,17.88
2022-11-04T01:51:28.439Z,18.35
2022-11-04T01:53:57.774Z,18.70
2022-11-04T01:56:27.832Z,19.20
2022-11-04T01:58:59.904Z,17.05
2022-11-04T02:01:30.273Z,17.70
2022-11-04T02:04:22.035Z,17.98
2022-11-04T02:06:52.029Z,17.23
2022-11-04T02:09:21.093Z,17.67
2022-11-04T02:12:07.850Z,17.38
2022-11-04T02:14:37.177Z,17.75
2022-11-04T02:17:16.892Z,16.75
2022-11-04T02:20:02.538Z,17.00
2022-11-04T02:23:01.905Z,16.80
2022-11-04T02:25:47.013Z,16.77
2022-11-04T02:28:52.701Z,16.40
2022-11-04T02:31:30.662Z,17.30
2022-11-04T02:34:05.197Z,18.23
2022-11-04T02:36:41.507Z,17.38
2022-11-04T02:39:17.262Z,16.95
2022-11-04T02:41:54.153Z,17.20
2022-11-04T02:44:33.298Z,16.95
2022-11-04T02:47:07.303Z,16.77
2022-11-04T02:49:41.916Z,17.02
2022-11-04T02:52:13.154Z,16.80
2022-11-04T02:54:47.704Z,16.55
2022-11-04T02:57:20.575Z,17.85
2022-11-04T02:59:53.797Z,17.73
2022-11-04T03:02:28.987Z,17.40
2022-11-04T03:05:00.060Z,17.85
2022-11-04T03:07:32.424Z,18.35
2022-11-04T03:10:03.690Z,18.50
2022-11-04T03:12:40.846Z,18.98
2022-11-04T03:15:15.654Z,17.98
2022-11-04T03:17:50.588Z,18.42
2022-11-04T03:20:22.297Z,16.87
2022-11-04T03:22:50.679Z,17.48
2022-11-04T03:25:18.917Z,16.77
2022-11-04T03:27:57.173Z,18.20
2022-11-04T03:30:25.957Z,16.83
2022-11-04T03:33:04.534Z,17.58
2022-11-04T03:35:33.064Z,17.58
2022-11-04T03:38:01.387Z,18.95
2022-11-04T03:40:30.651Z,17.30
2022-11-04T03:43:02.719Z,17.05
2022-11-04T03:45:30.836Z,18.30
2022-11-04T03:48:01.519Z,18.15
2022-11-04T03:50:31.658Z,17.85
2022-11-04T03:53:00.919Z,17.25
2022-11-04T03:55:36.758Z,16.42
2022-11-04T03:58:17.049Z,16.67
2022-11-04T04:00:53.093Z,16.70
2022-11-04T04:03:29.733Z,17.88
2022-11-04T04:06:04.488Z,15.57
2022-11-04T04:08:37.624Z,17.63
2022-11-04T04:11:11.424Z,16.40
2022-11-04T04:13:45.939Z,16.52
2022-11-04T04:16:23.265Z,17.35
2022-11-04T04:19:03.174Z,15.73
2022-11-04T04:21:36.880Z,16.17
2022-11-04T04:24:25.420Z,17.15
2022-11-04T04:27:13.296Z,16.05
2022-11-04T04:29:44.337Z,15.50
2022-11-04T04:32:12.840Z,17.25
2022-11-04T04:34:42.424Z,16.17
2022-11-04T04:37:15.487Z,17.02
2022-11-04T04:40:04.033Z,17.23
2022-11-04T04:42:51.396Z,16.08
2022-11-04T04:45:23.442Z,17.83
2022-11-04T04:47:52.560Z,17.48
2022-11-04T04:50:23.142Z,16.50
2022-11-04T04:52:57.656Z,17.45
2022-11-04T04:55:25.652Z,17.33
2022-11-04T04:57:53.663Z,17.98
2022-11-04T05:00:22.283Z,17.92
2022-11-04T05:02:50.593Z,19.48
2022-11-04T05:05:19.313Z,23.73
2022-11-04T05:07:49.168Z,22.23
2022-11-04T05:10:18.509Z,23.48
2022-11-04T05:13:05.952Z,23.95
2022-11-04T05:15:34.005Z,24.67
2022-11-04T05:18:03.728Z,25.08
2022-11-04T05:20:34.317Z,24.08
2022-11-04T05:23:03.903Z,25.08
2022-11-04T05:25:32.892Z,25.25
2022-11-04T05:28:01.993Z,25.27
2022-11-04T05:30:30.464Z,24.15
2022-11-04T05:33:04.616Z,25.58
2022-11-04T05:35:33.813Z,23.77
2022-11-04T05:38:03.877Z,24.42
2022-11-04T05:40:31.973Z,26.27
2022-11-04T05:43:01.217Z,25.45
2022-11-04T05:45:30.032Z,26.63
2022-11-04T05:48:00.767Z,26.70
2022-11-04T05:50:29.764Z,27.77
2022-11-04T05:52:58.647Z,27.30
2022-11-04T05:55:29.640Z,26.63
2022-11-04T05:57:59.394Z,28.05
2022-11-04T06:00:28.598Z,27.75
2022-11-04T06:02:57.696Z,28.70
2022-11-04T06:05:27.436Z,28.30
2022-11-04T06:07:55.593Z,28.65
2022-11-04T06:10:24.225Z,29.05
2022-11-04T06:12:53.917Z,29.90
2022-11-04T06:15:22.242Z,30.27
2022-11-04T06:17:50.280Z,29.08
2022-11-04T06:20:18.242Z,30.45
2022-11-04T06:22:46.239Z,29.88
2022-11-04T06:25:14.440Z,32.47
2022-11-04T06:27:42.438Z,27.95
2022-11-04T06:30:13.685Z,30.60
2022-11-04T06:32:41.823Z,31.63
2022-11-04T06:35:10.169Z,31.02
2022-11-04T06:37:39.307Z,31.45
2022-11-04T06:40:09.488Z,33.38
2022-11-04T06:42:37.608Z,30.50
2022-11-04T06:45:06.432Z,31.38
2022-11-04T06:47:35.824Z,29.73
2022-11-04T06:50:04.196Z,30.02
2022-11-04T06:52:32.363Z,29.10
2022-11-04T06:55:00.388Z,28.05
2022-11-04T06:57:29.474Z,28.95
2022-11-04T06:59:57.552Z,29.25
2022-11-04T07:02:26.051Z,27.45
2022-11-04T07:04:55.661Z,28.27
2022-11-04T07:07:23.699Z,28.30
2022-11-04T07:09:51.919Z,28.77
2022-11-04T07:12:20.399Z,28.60
2022-11-04T07:14:48.455Z,28.70
2022-11-04T07:17:16.495Z,28.88
2022-11-04T07:19:44.541Z,30.30
2022-11-04T07:22:14.043Z,29.58
2022-11-04T07:24:42.277Z,29.10
2022-11-04T07:27:10.458Z,31.38
2022-11-04T07:29:38.405Z,31.27
2022-11-04T07:32:07.445Z,29.95
2022-11-04T07:34:35.620Z,30.33
2022-11-04T07:37:03.616Z,31.52
2022-11-04T07:39:33.388Z,32.22
2022-11-04T07:42:01.444Z,33.17
2022-11-04T07:44:29.415Z,31.98
2022-11-04T07:47:01.607Z,32.88
2022-11-04T07:49:29.869Z,33.53
2022-11-04T07:51:57.926Z,31.42
2022-11-04T07:54:26.163Z,33.60
2022-11-04T07:56:55.618Z,30.65
2022-11-04T07:59:23.794Z,31.02
2022-11-04T08:01:51.978Z,32.40
2022-11-04T08:04:20.138Z,31.20
2022-11-04T08:06:52.419Z,30.70
2022-11-04T08:09:20.965Z,31.75
2022-11-04T08:11:49.102Z,31.35
2022-11-04T08:14:18.985Z,31.30
2022-11-04T08:16:47.031Z,32.47
2022-11-04T08:19:15.227Z,30.95
2022-11-04T08:21:43.301Z,31.58
2022-11-04T08:24:11.470Z,30.25
2022-11-04T08:26:39.786Z,27.63
2022-11-04T08:29:08.826Z,28.95
2022-11-04T08:31:39.749Z,31.10
2022-11-04T08:34:08.680Z,30.83
2022-11-04T08:36:40.849Z,30.90
2022-11-04T08:39:11.185Z,32.55
2022-11-04T08:41:41.251Z,33.22
2022-11-04T08:44:10.355Z,34.67
2022-11-04T08:46:41.859Z,34.85
2022-11-04T08:49:12.846Z,34.22
2022-11-04T08:51:46.855Z,34.60
2022-11-04T08:54:14.856Z,34.13
2022-11-04T08:56:43.141Z,32.97
2022-11-04T08:59:12.023Z,35.22
2022-11-04T09:01:41.958Z,34.75
2022-11-04T09:04:12.326Z,36.17
2022-11-04T09:06:43.306Z,33.42
2022-11-04T09:09:16.580Z,33.70
2022-11-04T09:11:46.380Z,34.40
2022-11-04T09:14:15.348Z,34.25
2022-11-04T09:16:47.064Z,34.53
2022-11-04T09:19:15.032Z,34.33
2022-11-04T09:21:43.144Z,35.10
2022-11-04T09:24:12.325Z,32.72
2022-11-04T09:26:40.459Z,32.72
2022-11-04T09:29:09.876Z,33.90
2022-11-04T09:31:39.308Z,31.80
2022-11-04T09:34:08.888Z,34.13
2022-11-04T09:36:36.967Z,32.42
2022-11-04T09:39:05.610Z,32.45
2022-11-04T09:42:03.049Z,30.40
2022-11-04T09:45:06.928Z,29.85
2022-11-04T09:47:29.598Z,29.67
2022-11-04T09:50:01.129Z,31.10
2022-11-04T09:52:32.500Z,30.75
2022-11-04T09:55:05.874Z,30.13
2022-11-04T09:57:34.723Z,28.40
2022-11-04T10:00:02.917Z,29.27
2022-11-04T10:02:56.485Z,31.65
2022-11-04T10:05:40.283Z,29.67
2022-11-04T10:08:37.586Z,30.42
2022-11-04T10:11:16.314Z,32.10
2022-11-04T10:13:55.897Z,29.67
2022-11-04T10:16:39.856Z,31.33
2022-11-04T10:19:24.055Z,30.15
2022-11-04T10:22:05.415Z,29.90
2022-11-04T10:24:43.519Z,29.20
2022-11-04T10:27:17.396Z,30.95
2022-11-04T10:29:46.735Z,30.83
2022-11-04T10:32:22.277Z,29.27
2022-11-04T10:34:57.423Z,31.38
2022-11-04T10:37:29.499Z,31.05
2022-11-04T10:40:02.478Z,30.63
2022-11-04T10:42:30.574Z,30.50
2022-11-04T10:44:58.557Z,30.30
2022-11-04T10:47:39.581Z,30.85
2022-11-04T10:50:31.462Z,29.70
2022-11-04T10:53:20.166Z,30.02
2022-11-04T10:55:53.347Z,29.45
2022-11-04T10:58:25.878Z,28.67
2022-11-04T11:00:54.927Z,29.55
2022-11-04T11:03:32.273Z,29.50
2022-11-04T11:06:16.550Z,29.98
2022-11-04T11:08:46.538Z,29.73
2022-11-04T11:11:16.207Z,28.90
2022-11-04T11:13:46.440Z,29.38
2022-11-04T11:33:08.234Z,26.67
2022-11-04T11:35:42.180Z,25.75
2022-11-04T11:38:24.128Z,25.10
2022-11-04T11:41:23.251Z,28.23
2022-11-04T11:43:46.683Z,26.27
2022-11-04T11:46:15.112Z,27.27
2022-11-04T11:48:50.949Z,24.88
2022-11-04T11:54:14.443Z,26.08
2022-11-04T11:57:11.874Z,26.50
2022-11-04T12:10:58.168Z,25.38
2022-11-04T12:13:30.380Z,27.73
2022-11-04T12:16:16.328Z,26.83
2022-11-04T12:19:01.667Z,25.67
2022-11-04T12:21:35.062Z,23.87
2022-11-04T12:24:14.415Z,25.27
2022-11-04T12:26:52.238Z,25.73
2022-11-04T12:29:37.254Z,24.42
2022-11-04T12:32:18.467Z,28.25
2022-11-04T12:35:00.926Z,30.58
2022-11-04T12:37:40.903Z,29.88
2022-11-04T12:40:17.146Z,29.05
2022-11-04T12:43:00.686Z,30.45
2022-11-04T12:45:37.869Z,28.73
2022-11-04T12:48:11.283Z,28.42
2022-11-04T12:50:53.117Z,30.67
2022-11-04T12:53:37.318Z,29.67
2022-11-04T12:56:10.634Z,32.30
2022-11-04T12:58:55.417Z,29.75
2022-11-04T13:01:29.751Z,28.98
2022-11-04T13:04:04.844Z,29.63
2022-11-04T13:06:40.057Z,30.77
2022-11-04T13:09:15.028Z,30.80
2022-11-04T13:11:51.185Z,29.13
2022-11-04T13:14:29.496Z,30.23
2022-11-04T13:17:01.145Z,31.73
2022-11-04T13:19:34.072Z,31.17
2022-11-04T13:22:06.938Z,29.50
2022-11-04T13:24:40.635Z,29.70
2022-11-04T13:27:20.248Z,28.77
2022-11-04T13:29:50.860Z,29.63
2022-11-04T13:32:29.066Z,26.95
2022-11-04T13:35:06.745Z,28.50
2022-11-04T13:37:39.667Z,30.08
2022-11-04T13:40:16.526Z,28.73
2022-11-04T13:43:17.849Z,30.83
2022-11-04T13:45:51.745Z,29.20
2022-11-04T13:48:22.617Z,27.90
2022-11-04T13:50:58.198Z,27.73
2022-11-04T13:53:42.460Z,27.83
2022-11-04T13:56:33.491Z,29.17
2022-11-04T13:59:06.909Z,28.80
2022-11-04T14:01:36.417Z,28.70
2022-11-04T14:04:30.205Z,31.05
2022-11-04T14:07:00.901Z,30.00
2022-11-04T14:09:53.518Z,32.13
2022-11-04T14:12:35.718Z,33.38
2022-11-04T14:15:12.048Z,32.45
2022-11-04T14:18:28.681Z,33.58
2022-11-04T14:21:07.351Z,30.80
2022-11-04T14:23:37.216Z,33.55
2022-11-04T14:26:07.049Z,33.13
2022-11-04T14:28:37.312Z,30.67
2022-11-04T14:31:12.557Z,32.28
2022-11-04T14:33:54.107Z,32.13
2022-11-04T14:36:34.662Z,32.03
2022-11-04T14:39:22.798Z,33.03
2022-11-04T14:42:01.932Z,30.98
2022-11-04T14:44:38.156Z,33.63
2022-11-04T14:47:18.631Z,31.98
2022-11-04T14:49:49.725Z,32.22
2022-11-04T14:52:24.373Z,30.88
2022-11-04T14:54:57.648Z,31.35
2022-11-04T14:57:25.772Z,30.35
2022-11-04T14:59:55.353Z,29.48
2022-11-04T15:02:28.380Z,31.48
2022-11-04T15:05:00.948Z,31.00
2022-11-04T15:07:37.793Z,42.25
2022-11-04T15:10:21.944Z,41.70
2022-11-04T15:12:55.299Z,39.72
2022-11-04T15:15:36.193Z,34.08
2022-11-04T15:18:10.471Z,33.42
2022-11-04T15:20:46.031Z,33.00
2022-11-04T15:23:17.729Z,33.10
2022-11-04T15:25:48.056Z,32.92
2022-11-04T15:28:21.107Z,32.45
2022-11-04T15:31:03.020Z,34.20
2022-11-04T15:33:34.228Z,37.13
2022-11-04T15:36:03.132Z,45.20
2022-11-04T15:38:31.924Z,41.13
2022-11-04T15:41:23.022Z,45.28
2022-11-04T15:43:50.615Z,50.90
2022-11-04T15:46:21.790Z,78.05
2022-11-04T15:49:05.723Z,74.00
2022-11-04T15:51:39.863Z,51.33
2022-11-04T15:54:20.202Z,49.97
2022-11-04T15:56:55.362Z,35.47
2022-11-04T15:59:27.803Z,28.60
2022-11-04T16:02:08.883Z,27.85
2022-11-04T16:04:37.044Z,26.95
2022-11-04T16:07:23.602Z,26.65
2022-11-04T16:09:53.323Z,26.70
2022-11-04T16:12:30.950Z,26.88
2022-11-04T16:15:01.359Z,26.88
2022-11-04T16:17:35.277Z,25.55
2022-11-04T16:20:07.872Z,24.55
2022-11-04T16:22:40.809Z,23.92
2022-11-04T16:25:20.601Z,22.88
2022-11-04T16:27:50.523Z,24.10
2022-11-04T16:30:21.670Z,23.48
2022-11-04T16:32:54.029Z,23.60
2022-11-04T16:35:25.130Z,24.98
2022-11-04T16:37:54.193Z,25.02
2022-11-04T16:40:23.728Z,25.00
2022-11-04T16:42:52.298Z,23.63
2022-11-04T16:45:26.406Z,24.40
2022-11-04T16:47:57.458Z,25.27
2022-11-04T16:50:26.294Z,25.83
2022-11-04T16:52:54.873Z,24.45
2022-11-04T16:55:24.384Z,25.95
2022-11-04T16:57:56.832Z,25.77
2022-11-04T17:00:26.417Z,24.63
2022-11-04T17:02:56.216Z,24.23
2022-11-04T17:05:24.275Z,23.55
2022-11-04T17:07:55.496Z,23.50
2022-11-04T17:10:28.684Z,25.70
2022-11-04T17:12:56.806Z,24.75
2022-11-04T17:15:25.994Z,24.27
2022-11-04T17:17:54.058Z,24.75
2022-11-04T17:20:23.755Z,22.48
2022-11-04T17:22:53.049Z,24.73
2022-11-04T17:25:23.187Z,23.08
2022-11-04T17:27:51.500Z,23.05
2022-11-04T17:30:21.816Z,24.65
2022-11-04T17:32:50.754Z,23.70
2022-11-04T17:35:19.421Z,23.40
2022-11-04T17:37:52.939Z,21.45
2022-11-04T17:40:22.295Z,23.40
2022-11-04T17:43:11.929Z,23.00
2022-11-04T17:45:41.459Z,22.60
2022-11-04T17:48:11.391Z,22.23
2022-11-04T17:50:42.457Z,21.25
2022-11-04T17:53:12.552Z,21.02
2022-11-04T17:55:41.574Z,21.48
2022-11-04T17:58:09.938Z,22.25
2022-11-04T18:00:39.149Z,22.45
2022-11-04T18:03:08.973Z,21.63
2022-11-04T18:05:37.833Z,21.58
2022-11-04T18:08:08.303Z,23.33
2022-11-04T18:10:38.073Z,23.95
2022-11-04T18:13:05.265Z,24.90
2022-11-04T18:15:33.482Z,25.40
2022-11-04T18:18:02.417Z,23.80
2022-11-04T18:20:30.915Z,22.90
2022-11-04T18:23:00.356Z,25.95
2022-11-04T18:25:28.524Z,25.40
2022-11-04T18:27:57.971Z,26.20
2022-11-04T18:30:26.197Z,27.17
2022-11-04T18:32:54.507Z,28.08
2022-11-04T18:35:22.792Z,28.75
2022-11-04T18:37:51.220Z,29.92
2022-11-04T18:40:19.330Z,32.05
2022-11-04T18:42:47.402Z,31.60
2022-11-04T18:45:21.040Z,32.05
2022-11-04T18:47:49.173Z,31.60
2022-11-04T18:50:17.511Z,31.30
2022-11-04T18:52:45.499Z,30.05
2022-11-04T18:55:13.463Z,30.33
2022-11-04T18:57:41.844Z,31.05
2022-11-04T19:00:16.686Z,31.02
2022-11-04T19:02:46.686Z,31.23
2022-11-04T19:05:14.799Z,30.70
2022-11-04T19:07:43.718Z,29.50
2022-11-04T19:10:12.483Z,30.63
2022-11-04T19:12:57.991Z,31.55
2022-11-04T19:15:26.685Z,30.10
2022-11-04T19:17:57.313Z,31.35
2022-11-04T19:20:25.443Z,29.77
2022-11-04T19:22:53.578Z,32.95
2022-11-04T19:25:21.609Z,30.38
2022-11-04T19:28:11.491Z,31.02
2022-11-04T19:30:38.349Z,32.45
2022-11-04T19:33:08.143Z,31.95
2022-11-04T19:35:36.248Z,30.92
2022-11-04T19:38:04.331Z,31.27
2022-11-04T19:40:36.674Z,31.95
2022-11-04T19:43:10.727Z,35.30
2022-11-04T19:45:41.165Z,34.65
2022-11-04T19:48:11.000Z,41.47
2022-11-04T19:50:45.240Z,40.08
2022-11-04T19:53:16.656Z,38.45
2022-11-04T19:55:50.607Z,38.30
2022-11-04T19:58:19.322Z,37.58
2022-11-04T20:00:48.312Z,40.08
2022-11-04T20:03:17.821Z,37.22
2022-11-04T20:05:46.209Z,35.55
2022-11-04T20:08:14.452Z,36.92
2022-11-04T20:10:44.303Z,33.70
2022-11-04T20:13:34.383Z,35.95
2022-11-04T20:16:03.209Z,34.55
2022-11-04T20:18:32.686Z,33.47
2022-11-04T20:21:04.063Z,33.20
2022-11-04T20:23:34.163Z,33.10
2022-11-04T20:26:08.081Z,31.83
2022-11-04T20:28:36.159Z,27.20
2022-11-04T20:31:10.241Z,32.90
2022-11-04T20:33:40.516Z,23.48
2022-11-04T20:36:09.536Z,31.02
2022-11-04T20:38:38.628Z,30.85
2022-11-04T20:41:08.316Z,29.45
2022-11-04T20:43:37.993Z,30.45
2022-11-04T20:46:08.119Z,31.38
2022-11-04T20:48:37.753Z,32.97
2022-11-04T20:51:12.581Z,31.92
2022-11-04T20:53:45.217Z,32.53
2022-11-04T20:56:17.994Z,29.75
2022-11-04T20:58:48.537Z,33.15
2022-11-04T21:01:21.553Z,34.90
2022-11-04T21:03:49.921Z,36.75
2022-11-04T21:06:21.145Z,35.78
2022-11-04T21:08:49.992Z,38.72
2022-11-04T21:11:18.462Z,40.72
2022-11-04T21:13:46.662Z,40.10
2022-11-04T21:16:16.671Z,33.22
2022-11-04T21:18:46.194Z,32.85
2022-11-04T21:21:20.204Z,24.42
2022-11-04T21:23:49.287Z,30.63
2022-11-04T21:26:22.491Z,28.65
2022-11-04T21:28:54.803Z,28.05
2022-11-04T21:31:23.306Z,24.33
2022-11-04T21:33:51.988Z,25.05
2022-11-04T21:36:23.114Z,26.85
2022-11-04T21:38:51.710Z,25.08
2022-11-04T21:41:23.153Z,18.83
2022-11-04T21:43:54.887Z,11.93
2022-11-04T21:46:23.117Z,16.85
2022-11-04T21:48:51.169Z,9.38
2022-11-04T21:51:22.735Z,12.80
2022-11-04T21:53:50.997Z,11.63
2022-11-04T21:56:21.474Z,6.78
2022-11-04T21:58:53.818Z,5.72
2022-11-04T22:01:26.163Z,5.20
2022-11-04T22:03:55.928Z,7.22
2022-11-04T22:06:29.078Z,6.13
2022-11-04T22:09:01.529Z,4.30
2022-11-04T22:11:31.572Z,4.70
2022-11-04T22:14:01.083Z,2.72
2022-11-04T22:16:34.047Z,3.15
2022-11-04T22:19:04.917Z,2.33
2022-11-04T22:21:40.177Z,2.35
2022-11-04T22:24:10.840Z,1.45
2022-11-04T22:26:39.462Z,1.30
2022-11-04T22:29:07.978Z,1.75
2022-11-04T22:31:37.662Z,1.40
2022-11-04T22:34:06.571Z,2.20
2022-11-04T22:36:35.956Z,1.83
2022-11-04T22:39:05.492Z,2.28
2022-11-04T22:41:34.490Z,1.92
2022-11-04T22:44:03.349Z,2.40
2022-11-04T22:46:35.213Z,1.50
2022-11-04T22:49:03.301Z,1.67
2022-11-04T22:51:32.539Z,1.67
2022-11-04T22:54:07.946Z,1.75
2022-11-04T22:56:36.692Z,1.10
2022-11-04T22:59:05.023Z,1.45
2022-11-04T23:01:34.050Z,1.63
2022-11-04T23:04:02.719Z,1.70
2022-11-04T23:06:30.910Z,1.77
2022-11-04T23:09:00.718Z,1.88
2022-11-04T23:11:49.322Z,1.23
2022-11-04T23:14:37.299Z,1.27
2022-11-04T23:17:32.254Z,1.60
2022-11-04T23:20:00.363Z,1.63
2022-11-04T23:22:47.576Z,1.67
2022-11-04T23:25:16.621Z,1.63
2022-11-04T23:28:05.204Z,2.30
2022-11-04T23:30:36.575Z,1.75
2022-11-04T23:33:06.689Z,2.10
2022-11-04T23:35:54.165Z,1.95
2022-11-04T23:38:23.145Z,2.38
2022-11-04T23:41:06.191Z,1.70
2022-11-04T23:43:35.653Z,2.33
2022-11-04T23:46:21.332Z,2.10
2022-11-04T23:49:21.608Z,2.35
2022-11-04T23:52:07.260Z,2.30
2022-11-04T23:54:57.778Z,1.95
2022-11-04T23:57:43.282Z,2.33
